Time;durP1;ratioP1;P1;durP2;ratioP2;P2;SDS_P1;SDS_P2;PMS_P1;PMS_P2;Temp;Humidity;BMP_temperature;BMP_pressure;BME280_temperature;BME280_humidity;BME280_pressure;Samples;Min_cycle;Max_cycle;Signal;HPM_P1;HPM_P2
2022/08/01 00:00:24;;;;;;;10.27;8.10;;;19.10;99.90;;;;;;5144579;27;20038;-76
2022/08/01 00:02:50;;;;;;;8.82;7.38;;;19.10;99.90;;;;;;5134328;27;20035;-77
2022/08/01 00:05:16;;;;;;;8.82;7.78;;;19.00;99.90;;;;;;5124132;27;20494;-77
2022/08/01 00:07:42;;;;;;;12.32;8.35;;;19.10;99.90;;;;;;5140000;27;20055;-77
2022/08/01 00:10:11;;;;;;;11.00;8.32;;;19.10;99.90;;;;;;5137241;27;20039;-77
2022/08/01 00:12:37;;;;;;;11.38;8.52;;;19.00;99.90;;;;;;5139407;27;20027;-77
2022/08/01 00:15:05;;;;;;;10.85;7.95;;;19.00;99.90;;;;;;5143043;27;20046;-77
2022/08/01 00:17:31;;;;;;;9.70;7.72;;;19.00;99.90;;;;;;5125722;27;20425;-76
2022/08/01 00:19:56;;;;;;;10.68;8.50;;;19.00;99.90;;;;;;5143213;27;20122;-77
2022/08/01 00:22:22;;;;;;;10.55;8.90;;;19.00;99.90;;;;;;5115989;27;20175;-77
2022/08/01 00:24:48;;;;;;;10.70;8.48;;;19.00;99.90;;;;;;5128846;27;20163;-77
2022/08/01 00:27:14;;;;;;;11.95;8.48;;;19.00;99.90;;;;;;5129699;27;20034;-77
2022/08/01 00:29:40;;;;;;;11.25;8.98;;;18.90;99.90;;;;;;5143328;27;20046;-75
2022/08/01 00:32:06;;;;;;;12.23;9.32;;;18.90;99.90;;;;;;5115313;27;20113;-77
2022/08/01 00:34:32;;;;;;;10.05;8.90;;;18.90;99.90;;;;;;5139782;27;20397;-76
2022/08/01 00:36:58;;;;;;;10.27;8.90;;;18.90;99.90;;;;;;5122456;27;20047;-77
2022/08/01 00:39:23;;;;;;;11.10;8.65;;;18.90;99.90;;;;;;5141521;27;20050;-77
2022/08/01 00:41:49;;;;;;;12.10;9.70;;;18.90;99.90;;;;;;5136431;27;20050;-75
2022/08/01 00:44:15;;;;;;;12.25;9.30;;;18.80;99.90;;;;;;5147565;27;20050;-77
2022/08/01 00:46:41;;;;;;;11.05;9.40;;;18.90;99.90;;;;;;5142349;27;20043;-77
2022/08/01 00:49:06;;;;;;;11.88;10.13;;;18.80;99.90;;;;;;5140941;27;20042;-76
2022/08/01 00:51:33;;;;;;;14.15;9.88;;;18.80;99.90;;;;;;5136947;27;20159;-78
2022/08/01 00:54:00;;;;;;;11.75;9.18;;;18.80;99.90;;;;;;5127464;27;20081;-77
2022/08/01 00:56:26;;;;;;;11.75;9.55;;;18.80;99.90;;;;;;5145441;27;21136;-76
2022/08/01 00:58:53;;;;;;;10.33;8.47;;;18.80;99.90;;;;;;5139594;27;20129;-76
2022/08/01 01:01:22;;;;;;;11.52;9.13;;;18.80;99.90;;;;;;5132652;27;20791;-77
2022/08/01 01:03:52;;;;;;;11.50;9.13;;;18.80;99.90;;;;;;5141463;27;20386;-77
2022/08/01 01:06:30;;;;;;;12.90;10.02;;;18.80;99.90;;;;;;5141553;27;20030;-76
2022/08/01 01:09:29;;;;;;;12.82;9.73;;;18.80;99.90;;;;;;5113220;27;20046;-77
2022/08/01 01:12:27;;;;;;;12.40;9.50;;;18.80;99.90;;;;;;5103814;27;20485;-77
2022/08/01 01:14:59;;;;;;;13.02;10.38;;;18.80;99.90;;;;;;5095859;27;20116;-77
2022/08/01 01:17:52;;;;;;;11.48;9.63;;;18.80;99.90;;;;;;5117978;27;20039;-77
2022/08/01 01:20:22;;;;;;;13.38;10.40;;;18.80;99.90;;;;;;5129022;27;20124;-77
2022/08/01 01:22:59;;;;;;;12.55;10.30;;;18.80;99.90;;;;;;5121300;27;20056;-76
2022/08/01 01:25:37;;;;;;;13.55;11.23;;;18.80;99.90;;;;;;5118327;27;20047;-77
2022/08/01 01:28:15;;;;;;;13.15;11.38;;;18.80;99.90;;;;;;5124739;27;20051;-77
2022/08/01 01:30:44;;;;;;;12.90;10.82;;;18.80;99.90;;;;;;5144101;27;20389;-77
2022/08/01 01:33:13;;;;;;;13.55;10.98;;;18.80;99.90;;;;;;5123388;27;20027;-77
2022/08/01 01:35:46;;;;;;;13.63;11.13;;;18.80;99.90;;;;;;5123398;27;20157;-77
2022/08/01 01:38:18;;;;;;;15.48;11.90;;;18.80;99.90;;;;;;5139368;27;20043;-77
2022/08/01 01:40:45;;;;;;;14.43;12.20;;;18.80;99.90;;;;;;5135881;27;20043;-77
2022/08/01 01:43:12;;;;;;;15.32;12.52;;;18.80;99.90;;;;;;5116693;27;20262;-77
2022/08/01 01:45:40;;;;;;;15.68;13.02;;;18.70;99.90;;;;;;5125292;27;20049;-77
2022/08/01 01:48:07;;;;;;;16.02;12.70;;;18.70;99.90;;;;;;5132306;27;20057;-76
2022/08/01 01:50:35;;;;;;;18.02;14.25;;;18.70;99.90;;;;;;5137540;27;20128;-77
2022/08/01 01:53:02;;;;;;;16.45;13.07;;;18.70;99.90;;;;;;5136857;27;20089;-77
2022/08/01 01:55:29;;;;;;;17.70;13.68;;;18.70;99.90;;;;;;5136512;27;20038;-77
2022/08/01 01:57:55;;;;;;;;;;;18.70;99.90;;;;;;5150198;27;20504;-77
2022/08/01 02:00:23;;;;;;;20.50;14.70;;;18.70;99.90;;;;;;5116113;27;19919;-77
2022/08/01 02:02:49;;;;;;;16.85;12.98;;;18.70;99.90;;;;;;5148322;27;20043;-75
2022/08/01 02:05:15;;;;;;;21.10;13.98;;;18.70;99.90;;;;;;5144212;27;20038;-77
2022/08/01 02:07:42;;;;;;;17.05;13.25;;;18.70;99.90;;;;;;5139919;27;20541;-76
2022/08/01 02:10:10;;;;;;;16.98;12.63;;;18.70;99.90;;;;;;5140401;27;20898;-77
2022/08/01 02:12:38;;;;;;;15.85;12.55;;;18.70;99.90;;;;;;5145582;27;20354;-77
2022/08/01 02:15:06;;;;;;;16.90;12.50;;;18.60;99.90;;;;;;5139679;27;20030;-77
2022/08/01 02:17:36;;;;;;;16.83;12.88;;;18.60;99.90;;;;;;5129255;27;20055;-77
2022/08/01 02:20:02;;;;;;;17.30;13.07;;;18.60;99.90;;;;;;5113133;27;20050;-77
2022/08/01 02:22:36;;;;;;;15.60;12.88;;;18.70;99.90;;;;;;5118515;27;20108;-76
2022/08/01 02:25:20;;;;;;;17.83;13.18;;;18.70;99.90;;;;;;5142312;27;20042;-77
2022/08/01 02:28:01;;;;;;;17.35;12.93;;;18.60;99.90;;;;;;5148650;27;20441;-77
2022/08/01 02:30:32;;;;;;;16.33;12.00;;;18.60;99.90;;;;;;5136703;27;20046;-76
2022/08/01 02:33:09;;;;;;;14.90;11.82;;;18.60;99.90;;;;;;5137650;27;20039;-77
2022/08/01 02:35:38;;;;;;;15.05;11.25;;;18.60;99.90;;;;;;5141313;27;20031;-76
2022/08/01 02:38:06;;;;;;;14.52;11.43;;;18.60;99.90;;;;;;5130986;27;20469;-76
2022/08/01 02:40:33;;;;;;;14.65;10.75;;;18.60;99.90;;;;;;5113795;27;20043;-77
2022/08/01 02:43:02;;;;;;;13.15;10.95;;;18.60;99.90;;;;;;5148693;27;20516;-76
2022/08/01 02:45:29;;;;;;;14.18;10.35;;;18.60;99.90;;;;;;5135619;27;20955;-77
2022/08/01 02:48:01;;;;;;;10.90;8.63;;;18.50;99.90;;;;;;5116659;27;20047;-77
2022/08/01 02:50:29;;;;;;;9.38;7.20;;;18.50;99.90;;;;;;5125807;27;20062;-77
2022/08/01 02:52:56;;;;;;;8.35;6.68;;;18.50;99.90;;;;;;5142581;27;20097;-76
2022/08/01 02:55:23;;;;;;;8.52;6.28;;;18.50;99.90;;;;;;5135181;27;20065;-77
2022/08/01 02:57:50;;;;;;;8.60;5.70;;;18.50;99.90;;;;;;5127692;27;20486;-77
2022/08/01 03:00:17;;;;;;;7.57;6.03;;;18.40;99.90;;;;;;5118852;27;20128;-77
2022/08/01 03:02:44;;;;;;;8.25;5.60;;;18.40;99.90;;;;;;5143634;27;20166;-76
2022/08/01 03:05:12;;;;;;;7.93;5.32;;;18.40;99.90;;;;;;5118990;27;20035;-76
2022/08/01 03:07:39;;;;;;;9.35;4.70;;;18.40;99.90;;;;;;5144106;27;20043;-77
2022/08/01 03:10:05;;;;;;;6.97;5.43;;;18.40;99.90;;;;;;5132545;27;20929;-77
2022/08/01 03:12:34;;;;;;;6.45;4.90;;;18.40;99.90;;;;;;5130660;27;20098;-77
2022/08/01 03:15:02;;;;;;;7.03;5.60;;;18.40;99.90;;;;;;5147231;27;20050;-76
2022/08/01 03:17:29;;;;;;;10.07;5.60;;;18.40;99.90;;;;;;5147632;27;20039;-76
2022/08/01 03:19:56;;;;;;;6.18;5.00;;;18.40;99.90;;;;;;5144410;27;20085;-77
2022/08/01 03:22:24;;;;;;;6.03;5.20;;;18.40;99.90;;;;;;5147017;27;20126;-76
2022/08/01 03:24:52;;;;;;;7.05;4.70;;;18.30;99.90;;;;;;5116650;27;20058;-77
2022/08/01 03:27:20;;;;;;;6.35;4.57;;;18.40;99.90;;;;;;5123399;27;20405;-76
2022/08/01 03:29:48;;;;;;;6.72;4.25;;;18.40;99.90;;;;;;5144312;27;20515;-76
2022/08/01 03:32:16;;;;;;;7.35;4.60;;;18.30;99.90;;;;;;5141245;27;20125;-77
2022/08/01 03:34:42;;;;;;;5.47;3.97;;;18.40;99.90;;;;;;5147853;27;20065;-76
2022/08/01 03:37:26;;;;;;;6.68;4.10;;;18.30;99.90;;;;;;5141684;27;20170;-77
2022/08/01 03:40:02;;;;;;;6.88;3.90;;;18.40;99.90;;;;;;5122883;27;20046;-76
2022/08/01 03:42:49;;;;;;;5.65;3.70;;;18.30;99.90;;;;;;5131239;27;20053;-76
2022/08/01 03:45:24;;;;;;;5.57;3.70;;;18.30;99.90;;;;;;5120749;27;20050;-76
2022/08/01 03:47:59;;;;;;;6.20;3.35;;;18.30;99.90;;;;;;5141376;27;20035;-76
2022/08/01 03:50:26;;;;;;;6.28;3.50;;;18.30;99.90;;;;;;5123171;27;20133;-77
2022/08/01 03:52:56;;;;;;;4.57;3.17;;;18.20;99.90;;;;;;5151059;27;20130;-77
2022/08/01 03:55:24;;;;;;;6.65;3.20;;;18.20;99.90;;;;;;5145479;27;20043;-76
2022/08/01 03:57:50;;;;;;;5.68;2.72;;;18.30;99.90;;;;;;5133396;27;20046;-77
2022/08/01 04:00:18;;;;;;;6.78;2.85;;;18.20;99.90;;;;;;5135842;27;20126;-76
2022/08/01 04:02:49;;;;;;;7.25;3.10;;;18.20;99.90;;;;;;5135651;27;20039;-77
2022/08/01 04:05:15;;;;;;;7.13;3.00;;;18.20;99.90;;;;;;5125754;27;20039;-76
2022/08/01 04:07:46;;;;;;;6.90;2.95;;;18.20;99.90;;;;;;5148676;27;20054;-76
2022/08/01 04:10:12;;;;;;;8.02;3.05;;;18.20;99.90;;;;;;5120772;27;20149;-77
2022/08/01 04:12:38;;;;;;;5.80;3.08;;;18.20;99.90;;;;;;5147495;27;20146;-77
2022/08/01 04:15:05;;;;;;;5.45;2.72;;;18.20;99.90;;;;;;5116369;27;20394;-77
2022/08/01 04:17:31;;;;;;;7.10;3.10;;;18.20;99.90;;;;;;5147518;27;20053;-77
2022/08/01 04:19:57;;;;;;;7.22;3.00;;;18.20;99.90;;;;;;5125132;27;20101;-77
2022/08/01 04:22:22;;;;;;;9.95;2.83;;;18.20;99.90;;;;;;5118853;27;20043;-77
2022/08/01 04:24:53;;;;;;;6.18;2.88;;;18.20;99.90;;;;;;5134729;27;20160;-77
2022/08/01 04:27:23;;;;;;;9.70;3.00;;;18.20;99.90;;;;;;5146567;27;20121;-77
2022/08/01 04:29:52;;;;;;;6.25;2.60;;;18.20;99.90;;;;;;5122433;27;20088;-76
2022/08/01 04:32:19;;;;;;;6.93;2.90;;;18.30;99.90;;;;;;5125467;27;20043;-77
2022/08/01 04:34:47;;;;;;;7.35;3.25;;;18.20;99.90;;;;;;5122924;27;20034;-77
2022/08/01 04:37:16;;;;;;;6.00;2.80;;;18.20;99.90;;;;;;5138200;27;20054;-76
2022/08/01 04:39:43;;;;;;;7.50;3.00;;;18.20;99.90;;;;;;5148444;27;20045;-77
2022/08/01 04:42:10;;;;;;;10.38;3.15;;;18.20;99.90;;;;;;5115963;27;20133;-77
2022/08/01 04:44:37;;;;;;;7.15;2.72;;;18.20;99.90;;;;;;5134174;27;20054;-77
2022/08/01 04:47:04;;;;;;;6.95;2.85;;;18.20;99.90;;;;;;5143407;27;20127;-76
2022/08/01 04:49:34;;;;;;;7.28;2.90;;;18.10;99.90;;;;;;5129768;27;20059;-76
2022/08/01 04:52:00;;;;;;;7.78;2.80;;;18.20;99.90;;;;;;5147819;27;20039;-77
2022/08/01 04:54:33;;;;;;;7.28;3.08;;;18.20;99.90;;;;;;5123938;27;20038;-77
2022/08/01 04:57:01;;;;;;;5.97;2.97;;;18.10;99.90;;;;;;5118733;27;20062;-76
2022/08/01 04:59:39;;;;;;;8.90;2.90;;;18.10;99.90;;;;;;5120704;27;20380;-77
2022/08/01 05:02:18;;;;;;;9.43;3.17;;;18.10;99.90;;;;;;5141851;27;20401;-77
2022/08/01 05:04:45;;;;;;;8.52;3.00;;;18.10;99.90;;;;;;5119146;27;20504;-77
2022/08/01 05:07:12;;;;;;;7.00;3.00;;;18.10;99.90;;;;;;5147314;27;20075;-76
2022/08/01 05:09:41;;;;;;;9.67;2.93;;;18.10;99.90;;;;;;5140594;27;20058;-76
2022/08/01 05:12:08;;;;;;;9.75;2.85;;;18.10;99.90;;;;;;5136171;27;20041;-76
2022/08/01 05:14:34;;;;;;;10.40;2.95;;;18.10;99.90;;;;;;5119340;27;20058;-75
2022/08/01 05:17:06;;;;;;;7.38;3.50;;;18.10;99.90;;;;;;5136247;27;20040;-76
2022/08/01 05:19:36;;;;;;;8.65;3.25;;;18.10;99.90;;;;;;5135628;27;20043;-76
2022/08/01 05:22:06;;;;;;;8.43;3.40;;;18.10;99.90;;;;;;5122090;27;20062;-76
2022/08/01 05:24:34;;;;;;;10.30;3.45;;;18.10;99.90;;;;;;5143960;27;20039;-75
2022/08/01 05:27:00;;;;;;;8.73;3.40;;;18.20;99.90;;;;;;5134748;27;20035;-73
2022/08/01 05:29:26;;;;;;;10.90;3.70;;;18.10;99.90;;;;;;5116181;27;20034;-73
2022/08/01 05:31:53;;;;;;;8.40;3.80;;;18.10;99.90;;;;;;5112336;27;20398;-73
2022/08/01 05:34:19;;;;;;;11.80;4.03;;;18.10;99.90;;;;;;5127102;27;20038;-73
2022/08/01 05:36:46;;;;;;;6.68;3.25;;;18.10;99.90;;;;;;5137785;27;20117;-73
2022/08/01 05:39:12;;;;;;;8.00;3.88;;;18.10;99.90;;;;;;5133103;27;20091;-73
2022/08/01 05:41:38;;;;;;;11.20;4.10;;;18.20;99.90;;;;;;5114092;27;20047;-73
2022/08/01 05:44:04;;;;;;;8.93;3.67;;;18.20;99.90;;;;;;5133495;27;20508;-76
2022/08/01 05:46:33;;;;;;;10.52;3.58;;;18.20;99.90;;;;;;5117565;27;20050;-74
2022/08/01 05:49:04;;;;;;;9.60;3.85;;;18.20;99.90;;;;;;5113552;27;20126;-74
2022/08/01 05:51:30;;;;;;;8.93;4.00;;;18.20;99.90;;;;;;5135895;27;20114;-74
2022/08/01 05:53:57;;;;;;;9.48;4.32;;;18.20;99.90;;;;;;5131854;27;20069;-74
2022/08/01 05:56:23;;;;;;;11.23;4.00;;;18.10;99.90;;;;;;5120178;27;20062;-74
2022/08/01 05:58:50;;;;;;;10.82;4.18;;;18.10;99.90;;;;;;5135270;27;20034;-73
2022/08/01 06:01:17;;;;;;;11.75;4.22;;;18.00;99.90;;;;;;5114401;27;20047;-73
2022/08/01 06:03:43;;;;;;;11.52;4.20;;;18.10;99.90;;;;;;5134971;27;20129;-74
2022/08/01 06:06:09;;;;;;;10.07;3.88;;;18.10;99.90;;;;;;5136627;27;20468;-73
2022/08/01 06:08:35;;;;;;;9.80;3.83;;;18.00;99.90;;;;;;5136665;27;20552;-73
2022/08/01 06:11:01;;;;;;;10.45;3.75;;;18.00;99.90;;;;;;5149410;27;20049;-74
2022/08/01 06:13:27;;;;;;;10.02;4.05;;;18.10;99.90;;;;;;5121283;27;20047;-74
2022/08/01 06:15:53;;;;;;;10.77;3.85;;;18.10;99.90;;;;;;5135595;27;20551;-73
2022/08/01 06:18:19;;;;;;;14.23;4.05;;;18.10;99.90;;;;;;5140785;27;20034;-73
2022/08/01 06:20:45;;;;;;;13.73;3.80;;;18.10;99.90;;;;;;5115518;27;20043;-73
2022/08/01 06:23:10;;;;;;;13.52;4.25;;;18.10;99.90;;;;;;5144394;27;20825;-72
2022/08/01 06:25:36;;;;;;;10.95;3.78;;;18.20;99.90;;;;;;5130258;27;20042;-74
2022/08/01 06:28:02;;;;;;;10.93;3.83;;;18.20;99.90;;;;;;5132868;27;20494;-74
2022/08/01 06:30:28;;;;;;;13.95;4.20;;;18.20;99.90;;;;;;5117377;27;20798;-74
2022/08/01 06:32:55;;;;;;;12.40;4.25;;;18.10;99.90;;;;;;5137004;27;20141;-74
2022/08/01 06:35:21;;;;;;;;;;;18.10;99.90;;;;;;5135420;27;20047;-75
2022/08/01 06:37:48;;;;;;;11.65;3.78;;;18.10;99.90;;;;;;5118970;27;19926;-75
2022/08/01 06:40:15;;;;;;;;;;;18.10;99.90;;;;;;5129037;27;20050;-73
2022/08/01 06:42:40;;;;;;;17.70;3.97;;;18.20;99.90;;;;;;5134289;27;19942;-79
2022/08/01 06:45:09;;;;;;;18.02;4.82;;;18.30;99.90;;;;;;5122768;27;20301;-79
2022/08/01 06:47:36;;;;;;;15.65;4.60;;;18.30;99.90;;;;;;5132077;27;20129;-79
2022/08/01 06:50:04;;;;;;;14.98;3.90;;;18.40;99.90;;;;;;5142902;27;20121;-77
2022/08/01 06:52:29;;;;;;;;;;;18.50;99.90;;;;;;5119662;28;20039;-79
2022/08/01 06:54:55;;;;;;;13.85;3.50;;;18.50;99.90;;;;;;5118060;27;19930;-79
2022/08/01 06:57:21;;;;;;;12.50;3.15;;;18.60;99.90;;;;;;5145536;27;20036;-77
2022/08/01 06:59:46;;;;;;;12.23;3.20;;;18.70;99.90;;;;;;5149214;27;20401;-78
2022/08/01 07:02:12;;;;;;;16.33;3.47;;;18.80;99.90;;;;;;5122332;27;20043;-77
2022/08/01 07:04:37;;;;;;;16.83;3.45;;;18.80;99.90;;;;;;5131102;27;20447;-78
2022/08/01 07:07:03;;;;;;;14.73;3.58;;;18.80;99.90;;;;;;5130336;27;20043;-77
2022/08/01 07:09:29;;;;;;;14.55;3.15;;;18.70;99.90;;;;;;5135954;27;20049;-77
2022/08/01 07:11:55;;;;;;;15.65;3.38;;;18.70;99.90;;;;;;5120428;27;20042;-78
2022/08/01 07:14:22;;;;;;;16.73;3.50;;;18.60;99.90;;;;;;5137681;27;20607;-79
2022/08/01 07:16:48;;;;;;;15.95;3.25;;;18.60;99.90;;;;;;5152932;27;20486;-79
2022/08/01 07:19:13;;;;;;;15.70;3.40;;;18.60;99.90;;;;;;5127844;27;20485;-78
2022/08/01 07:21:39;;;;;;;16.27;3.75;;;18.60;99.90;;;;;;5137860;27;20066;-78
2022/08/01 07:24:06;;;;;;;16.27;3.80;;;18.70;99.90;;;;;;5145435;27;20039;-80
2022/08/01 07:26:32;;;;;;;16.15;4.07;;;18.80;99.90;;;;;;5138093;27;20558;-79
2022/08/01 07:28:58;;;;;;;13.35;4.15;;;18.90;99.90;;;;;;5138087;27;20039;-78
2022/08/01 07:31:24;;;;;;;15.13;3.47;;;18.90;99.90;;;;;;5141067;27;20172;-79
2022/08/01 07:33:50;;;;;;;14.73;3.53;;;19.00;99.90;;;;;;5133335;27;20421;-79
2022/08/01 07:36:16;;;;;;;18.52;3.83;;;19.00;99.90;;;;;;5136047;27;20038;-78
2022/08/01 07:38:42;;;;;;;14.90;3.87;;;19.10;99.90;;;;;;5115028;27;20047;-76
2022/08/01 07:41:07;;;;;;;18.90;3.58;;;19.10;99.90;;;;;;5127893;27;20873;-77
2022/08/01 07:43:35;;;;;;;14.35;3.70;;;19.20;99.90;;;;;;5120279;27;20051;-78
2022/08/01 07:46:02;;;;;;;13.15;3.40;;;19.20;99.90;;;;;;5126260;27;20055;-76
2022/08/01 07:48:27;;;;;;;16.77;3.90;;;19.20;99.90;;;;;;5135826;27;20043;-76
2022/08/01 07:50:53;;;;;;;12.73;3.30;;;19.20;99.90;;;;;;5118127;27;20195;-78
2022/08/01 07:53:19;;;;;;;14.98;3.65;;;19.20;99.90;;;;;;5116994;27;20035;-75
2022/08/01 07:55:44;;;;;;;16.88;3.83;;;19.20;99.90;;;;;;5140985;27;20043;-75
2022/08/01 07:58:10;;;;;;;11.95;3.40;;;19.30;99.90;;;;;;5138659;27;20043;-76
2022/08/01 08:00:35;;;;;;;15.10;3.40;;;19.30;99.90;;;;;;5134156;27;20104;-77
2022/08/01 08:03:01;;;;;;;14.13;3.60;;;19.30;99.90;;;;;;5141791;27;20416;-79
2022/08/01 08:05:27;;;;;;;13.52;3.90;;;19.40;99.90;;;;;;5116262;27;20057;-79
2022/08/01 08:07:53;;;;;;;13.65;3.25;;;19.40;99.90;;;;;;5119828;27;20035;-79
2022/08/01 08:10:19;;;;;;;12.85;3.47;;;19.50;99.90;;;;;;5122954;27;20516;-79
2022/08/01 08:12:46;;;;;;;15.45;4.43;;;19.50;99.90;;;;;;5121000;27;20039;-78
2022/08/01 08:15:12;;;;;;;13.10;3.63;;;19.50;99.90;;;;;;5126590;27;20051;-78
2022/08/01 08:17:38;;;;;;;13.93;3.60;;;19.40;99.90;;;;;;5152775;27;20123;-78
2022/08/01 08:20:06;;;;;;;16.98;4.05;;;19.40;99.90;;;;;;5134011;27;20039;-78
2022/08/01 08:22:32;;;;;;;17.27;4.13;;;19.30;99.90;;;;;;5133441;27;20110;-78
2022/08/01 08:24:59;;;;;;;15.63;3.75;;;19.30;99.90;;;;;;5152139;27;20467;-78
2022/08/01 08:27:24;;;;;;;17.77;3.65;;;19.30;99.90;;;;;;5132632;27;20050;-77
2022/08/01 08:29:50;;;;;;;15.57;3.88;;;19.30;99.90;;;;;;5112643;27;20047;-78
2022/08/01 08:32:15;;;;;;;12.20;3.45;;;19.30;99.90;;;;;;5113191;27;20584;-78
2022/08/01 08:34:41;;;;;;;18.75;4.30;;;19.30;99.90;;;;;;5132324;27;20043;-78
2022/08/01 08:37:07;;;;;;;16.00;3.63;;;19.30;99.90;;;;;;5130497;27;20770;-78
2022/08/01 08:39:32;;;;;;;11.05;3.03;;;19.30;99.90;;;;;;5113403;27;20066;-77
2022/08/01 08:42:05;;;;;;;21.40;4.50;;;19.40;99.90;;;;;;5138369;27;20061;-78
2022/08/01 08:44:31;;;;;;;13.00;3.30;;;19.40;99.90;;;;;;5143676;27;20046;-78
2022/08/01 08:47:00;;;;;;;17.35;3.70;;;19.40;99.90;;;;;;5154496;27;20088;-78
2022/08/01 08:49:28;;;;;;;15.02;3.72;;;19.40;99.90;;;;;;5152210;27;20038;-78
2022/08/01 08:51:59;;;;;;;15.75;4.35;;;19.50;99.90;;;;;;5151860;27;20038;-78
2022/08/01 08:54:26;;;;;;;18.17;3.85;;;19.60;99.90;;;;;;5150599;27;20049;-78
2022/08/01 08:56:53;;;;;;;12.05;3.45;;;19.60;99.90;;;;;;5128734;27;20054;-76
2022/08/01 08:59:19;;;;;;;12.80;3.15;;;19.70;99.90;;;;;;5139701;27;20051;-77
2022/08/01 09:01:45;;;;;;;13.30;3.40;;;19.70;99.90;;;;;;5137902;27;20057;-77
2022/08/01 09:04:12;;;;;;;13.23;3.38;;;19.70;99.90;;;;;;5115057;27;20043;-75
2022/08/01 09:06:38;;;;;;;14.25;3.03;;;19.70;99.90;;;;;;5138609;27;20482;-76
2022/08/01 09:09:05;;;;;;;18.63;3.67;;;19.70;99.90;;;;;;5128590;27;20397;-76
2022/08/01 09:11:31;;;;;;;14.13;3.17;;;19.80;99.90;;;;;;5113561;27;20038;-75
2022/08/01 09:14:09;;;;;;;14.13;3.85;;;19.80;99.90;;;;;;5113912;27;20035;-75
2022/08/01 09:16:39;;;;;;;15.73;3.90;;;19.90;99.90;;;;;;5115273;27;20035;-78
2022/08/01 09:19:15;;;;;;;13.35;2.90;;;19.90;99.90;;;;;;5113334;27;20043;-77
2022/08/01 09:21:58;;;;;;;15.52;3.33;;;20.00;99.90;;;;;;5116450;27;20043;-80
2022/08/01 09:24:26;;;;;;;14.75;3.33;;;20.00;99.90;;;;;;5111852;27;20799;-79
2022/08/01 09:26:53;;;;;;;16.63;3.47;;;20.10;99.90;;;;;;5133993;27;20495;-80
2022/08/01 09:29:31;;;;;;;12.23;3.20;;;20.20;99.90;;;;;;5132205;27;20371;-79
2022/08/01 09:31:59;;;;;;;15.55;3.58;;;20.30;99.90;;;;;;5130243;27;20047;-80
2022/08/01 09:34:32;;;;;;;10.95;2.92;;;20.40;99.90;;;;;;5133503;27;20351;-81
2022/08/01 09:37:00;;;;;;;14.30;3.42;;;20.40;99.90;;;;;;5134375;27;20144;-82
2022/08/01 09:39:40;;;;;;;12.70;3.10;;;20.40;99.90;;;;;;5136302;27;20474;-81
2022/08/01 09:42:25;;;;;;;14.00;3.67;;;20.40;99.90;;;;;;5134151;27;20058;-81
2022/08/01 09:44:51;;;;;;;13.68;3.15;;;20.60;99.90;;;;;;5138675;27;20057;-81
2022/08/01 09:47:20;;;;;;;13.35;3.83;;;20.60;99.90;;;;;;5113144;27;20060;-80
2022/08/01 09:49:54;;;;;;;14.73;3.22;;;20.60;99.90;;;;;;5132232;27;20047;-80
2022/08/01 09:52:24;;;;;;;10.75;3.05;;;20.70;99.90;;;;;;5133967;27;20126;-81
2022/08/01 09:54:56;;;;;;;12.48;3.53;;;20.70;99.90;;;;;;5136787;27;20043;-80
2022/08/01 09:57:22;;;;;;;12.13;2.90;;;20.60;99.90;;;;;;5114819;27;20521;-82
2022/08/01 09:59:50;;;;;;;12.50;3.00;;;20.60;99.90;;;;;;5130533;27;20035;-85
2022/08/01 10:02:35;;;;;;;12.35;2.90;;;20.60;99.90;;;;;;5133316;27;20046;-80
2022/08/01 10:05:03;;;;;;;15.73;3.10;;;20.70;99.90;;;;;;5150179;27;20039;-80
2022/08/01 10:07:28;;;;;;;15.13;3.28;;;20.60;99.90;;;;;;5163144;27;20039;-82
2022/08/01 10:09:54;;;;;;;12.60;3.17;;;20.60;99.90;;;;;;5141120;27;20091;-82
2022/08/01 10:12:23;;;;;;;15.88;3.00;;;20.60;99.90;;;;;;5138538;27;20039;-82
2022/08/01 10:14:51;;;;;;;14.63;2.92;;;20.70;99.90;;;;;;5130106;27;20473;-82
2022/08/01 10:17:19;;;;;;;11.80;3.40;;;20.70;99.90;;;;;;5143362;27;20280;-81
2022/08/01 10:19:45;;;;;;;14.07;3.00;;;20.80;99.90;;;;;;5134662;27;20035;-81
2022/08/01 10:22:18;;;;;;;9.27;2.70;;;20.90;99.90;;;;;;5141869;27;20952;-81
2022/08/01 10:24:47;;;;;;;13.32;2.85;;;21.00;99.90;;;;;;5133108;27;20300;-81
2022/08/01 10:27:15;;;;;;;11.35;3.20;;;21.10;99.90;;;;;;5133033;27;20253;-81
2022/08/01 10:29:43;;;;;;;8.85;2.50;;;21.20;99.90;;;;;;5150113;27;20401;-81
2022/08/01 10:32:09;;;;;;;10.07;2.00;;;21.30;99.90;;;;;;5128128;27;20057;-81
2022/08/01 10:34:36;;;;;;;12.07;2.88;;;21.30;99.90;;;;;;5150873;27;20063;-84
2022/08/01 10:37:04;;;;;;;8.82;2.42;;;21.40;99.90;;;;;;5145036;27;20049;-84
2022/08/01 10:39:32;;;;;;;7.88;2.30;;;21.40;99.90;;;;;;5149713;27;20456;-82
2022/08/01 10:41:59;;;;;;;12.10;3.15;;;21.50;99.90;;;;;;5119953;27;20125;-84
2022/08/01 10:44:26;;;;;;;12.88;2.55;;;21.60;99.90;;;;;;5135355;27;20096;-85
2022/08/01 10:47:06;;;;;;;10.75;2.63;;;21.60;99.90;;;;;;5113092;28;20159;-85
2022/08/01 10:49:36;;;;;;;10.55;2.20;;;21.60;99.90;;;;;;5133041;27;20047;-76
2022/08/01 10:52:02;;;;;;;9.70;2.80;;;21.60;99.90;;;;;;5128682;27;20043;-77
2022/08/01 10:54:28;;;;;;;7.30;2.00;;;21.60;99.90;;;;;;5132868;27;20054;-78
2022/08/01 10:56:56;;;;;;;13.10;2.95;;;21.70;99.90;;;;;;5128258;27;20297;-79
2022/08/01 10:59:30;;;;;;;12.20;2.50;;;21.80;99.90;;;;;;5138591;27;20066;-80
2022/08/01 11:01:57;;;;;;;11.75;2.40;;;21.90;99.90;;;;;;5136206;27;20198;-80
2022/08/01 11:04:31;;;;;;;;;;;21.90;99.90;;;;;;5110579;28;20489;-81
2022/08/01 11:07:04;;;;;;;;;;;21.90;99.90;;;;;;5138606;27;19971;-78
2022/08/01 11:09:37;;;;;;;;;;;21.90;99.90;;;;;;5143790;27;20296;-80
2022/08/01 11:12:13;;;;;;;;;;;21.90;99.90;;;;;;5113102;27;19923;-82
2022/08/01 11:14:57;;;;;;;;;;;21.80;99.90;;;;;;5136753;27;19931;-84
2022/08/01 11:17:32;;;;;;;;;;;21.70;99.90;;;;;;5130758;27;19928;-79
2022/08/01 11:20:04;;;;;;;;;;;21.70;99.90;;;;;;5111267;28;19919;-80
2022/08/01 11:22:29;;;;;;;;;;;21.70;99.90;;;;;;5130123;27;19934;-82
2022/08/01 11:24:56;;;;;;;;;;;21.70;99.90;;;;;;5137138;27;19923;-81
2022/08/01 11:27:22;;;;;;;;;;;21.70;99.90;;;;;;5116594;27;19927;-82
2022/08/01 11:30:06;;;;;;;;;;;21.70;99.90;;;;;;5132698;27;20006;-78
2022/08/01 11:32:31;;;;;;;;;;;21.70;99.90;;;;;;5147971;27;19944;-82
2022/08/01 11:34:57;;;;;;;;;;;21.80;99.90;;;;;;5122446;27;19923;-81
2022/08/01 11:37:26;;;;;;;;;;;21.80;99.90;;;;;;5154543;27;19927;-84
2022/08/01 11:40:11;;;;;;;;;;;21.90;99.90;;;;;;5125679;28;19923;-82
2022/08/01 11:42:37;;;;;;;;;;;21.90;99.90;;;;;;5115840;27;19926;-83
2022/08/01 11:45:02;;;;;;;;;;;21.80;99.90;;;;;;5112984;27;19923;-77
2022/08/01 11:47:46;;;;;;;;;;;21.70;99.90;;;;;;5124660;27;20060;-82
2022/08/01 11:50:30;;;;;;;;;;;21.70;99.90;;;;;;5138289;27;19924;-80
2022/08/01 11:53:00;;;;;;;;;;;21.70;99.90;;;;;;5143478;27;20334;-80
2022/08/01 11:55:26;;;;;;;;;;;21.70;99.90;;;;;;5115299;27;20362;-83
2022/08/01 11:57:58;;;;;;;;;;;21.80;99.90;;;;;;5137597;27;19919;-80
2022/08/01 12:00:24;;;;;;;;;;;22.00;99.90;;;;;;5127662;27;20365;-81
2022/08/01 12:02:59;;;;;;;;;;;22.10;99.90;;;;;;5127040;27;19923;-80
2022/08/01 12:05:25;;;;;;;;;;;22.10;99.90;;;;;;5131679;27;19919;-80
2022/08/01 12:07:51;;;;;;;;;;;22.10;99.90;;;;;;5112088;27;19926;-80
2022/08/01 12:10:18;;;;;;;;;;;22.00;99.90;;;;;;5142005;27;19919;-80
2022/08/01 12:12:45;;;;;;;;;;;22.00;99.90;;;;;;5135629;27;20005;-80
2022/08/01 12:15:11;;;;;;;;;;;21.90;99.90;;;;;;5146858;27;19937;-80
2022/08/01 12:17:41;;;;;;;;;;;21.80;99.90;;;;;;5118279;27;20278;-80
2022/08/01 12:20:08;;;;;;;;;;;21.80;99.90;;;;;;5112211;27;19969;-83
2022/08/01 12:22:34;;;;;;;;;;;21.80;99.90;;;;;;5132955;27;19923;-80
2022/08/01 12:25:07;;;;;;;;;;;21.90;99.90;;;;;;5133962;27;19919;-80
2022/08/01 12:27:32;;;;;;;;;;;21.90;99.90;;;;;;5133474;27;20172;-82
2022/08/01 12:29:59;;;;;;;;;;;22.00;99.90;;;;;;5133630;27;20010;-80
2022/08/01 12:32:35;;;;;;;;;;;22.00;99.90;;;;;;5150825;27;19929;-80
2022/08/01 12:35:05;;;;;;;;;;;22.10;99.90;;;;;;5126408;27;20285;-79
2022/08/01 12:37:34;;;;;;;;;;;22.10;99.90;;;;;;5132372;27;20025;-83
2022/08/01 12:39:59;;;;;;;;;;;22.00;99.90;;;;;;5124116;27;19918;-78
2022/08/01 12:42:25;;;;;;;;;;;21.90;99.90;;;;;;5135636;27;20366;-79
2022/08/01 12:44:51;;;;;;;;;;;21.90;99.90;;;;;;5122643;27;19919;-79
2022/08/01 12:47:20;;;;;;;;;;;21.90;99.90;;;;;;5117300;27;20381;-79
2022/08/01 12:49:46;;;;;;;;;;;21.90;99.90;;;;;;5118791;27;19941;-80
2022/08/01 12:52:12;;;;;;;;;;;21.80;99.90;;;;;;5113161;27;19926;-79
2022/08/01 12:54:56;;;;;;;;;;;21.90;99.90;;;;;;5135355;27;19919;-80
2022/08/01 12:57:23;;;;;;;;;;;21.90;99.90;;;;;;5136937;27;20014;-80
2022/08/01 12:59:52;;;;;;;;;;;22.00;99.90;;;;;;5128955;27;19919;-80